ADDS TAF Data INFO
IDs: Format: Raw Decoded Include METARs

Data at: 2307 UTC 15 Aug 2018

Region: TOP
Region: TOP
KATL 152151Z 1522/1624 24004KT P6SM FEW070 FEW250
  FM160100 17004KT P6SM FEW050 SCT120
  FM160700 19003KT P6SM SCT250
  FM161600 20006KT P6SM SCT045


KBOS 152020Z 1520/1624 12007KT P6SM BKN050 BKN120 BKN250
  FM152300 18007KT P6SM SCT050 BKN250
  FM160000 23005KT P6SM SCT150
  FM160500 26005KT P6SM FEW150
  FM161200 29007KT P6SM FEW200
  FM161700 28006KT P6SM FEW050
  FM162200 24004KT P6SM FEW060


KBWI 152031Z 1521/1624 29008KT P6SM SCT050 BKN250
  FM160000 VRB03KT P6SM FEW250
  FM161600 20006KT P6SM BKN150


KCLE 152054Z 1521/1624 27007KT P6SM SCT040 OVC200
  FM160000 19008KT P6SM OVC100
  FM160600 18008KT P6SM VCSH OVC050
  FM161200 19011KT 5SM -SHRA VCTS OVC030CB


KCLT 152228Z 1522/1624 29004KT P6SM FEW060 BKN250
  FM160500 VRB02KT P6SM FEW080 SCT150
  FM161400 23004KT P6SM FEW050 SCT200
  FM161700 24007KT P6SM SCT050


KCVG 152059Z 1521/1624 18008KT 5SM -RA BR FEW006 SCT090 OVC110
  FM152300 17007KT P6SM SCT050 BKN100
  FM160500 17006KT P6SM VCSH BKN050 OVC100
  FM160700 16008KT P6SM -SHRA OVC045
  TEMPO 1609/1613 4SM SHRA BR OVC035
  FM161400 19011KT P6SM SCT050 OVC100
  FM162000 18012KT P6SM VCTS BKN060CB OVC090


KDCA 152031Z 1521/1624 29009KT P6SM SCT050 BKN250
  FM160000 22004KT P6SM FEW250
  FM161600 18006KT P6SM BKN150


KDEN 152203Z 1522/1624 12008KT P6SM FEW120 SCT250
  FM160100 15010G18KT P6SM FEW090 SCT140
  FM160400 19013KT P6SM SCT140 BKN200
  FM160700 26008KT P6SM SCT200
  FM161400 35007KT P6SM SCT200
  FM162100 09007KT P6SM SCT220


KDFW 152050Z 1521/1624 19011KT P6SM FEW060

KDTW 152144Z 1522/1624 21010KT P6SM VCSH FEW045 OVC200
  FM160000 23006KT P6SM SCT045 BKN070 OVC150
  FM160600 20005KT P6SM VCSH OVC045
  FM160900 20009KT 4SM -SHRA SCT020 OVC040
  TEMPO 1614/1618 2SM RA SCT012 OVC020
  FM161800 18008KT 5SM -SHRA OVC020


KEWR 152220Z 1522/1624 25011KT P6SM SCT050
  FM160100 27008KT P6SM SCT060
  FM160600 27005KT P6SM FEW060 FEW250
  FM161300 30007KT P6SM FEW050 FEW250
  FM161800 27010G17KT P6SM FEW050 FEW250


KFLL 152052Z 1521/1624 13012KT P6SM FEW030 FEW090 SCT150
  FM160100 10006KT P6SM FEW040 SCT250
  FM161400 12012KT P6SM SCT035


KIAD 152031Z 1521/1624 29008KT P6SM SCT050 BKN200
  FM160000 VRB03KT P6SM SCT250
  FM161600 21006KT P6SM BKN150


KIAH 152107Z 1521/1624 16013KT P6SM VCTS SCT050CB BKN250
  FM152300 15005KT P6SM SCT250
  FM161500 18006KT P6SM SCT030


KJFK 152220Z 1522/1624 25012KT P6SM SCT060
  TEMPO 1522/1524 24009KT
  FM160100 26010KT P6SM SCT060
  FM160300 27006KT P6SM FEW060 FEW250
  FM161600 23010KT P6SM FEW050 FEW250
  FM161800 20011KT P6SM FEW050 FEW250
  FM162000 20014KT P6SM FEW050 FEW250


KLAS 152140Z 1522/1624 14015G25KT P6SM VCTS SCT120CB
  TEMPO 1522/1523 VRB20G30KT -TSRA SCT100CB BKN200
  FM152300 24010G20KT P6SM VCTS SCT120CB
  TEMPO 1523/1524 VRB20G30KT -TSRA SCT100CB BKN200
  FM160200 21009KT P6SM SCT120 SCT200
  FM161400 VRB06KT P6SM BKN250
  FM161800 16009KT P6SM BKN250
  FM162100 17010KT P6SM VCTS SCT100CB BKN250


KLAX 152041Z 1521/1624 25011KT P6SM FEW025
  FM160400 26006KT P6SM FEW010
  FM160800 VRB03KT P6SM BKN011
  FM161600 26006KT P6SM SCT015
  FM162000 26012KT P6SM SKC


KLGA 152220Z 1522/1624 29010KT P6SM FEW060 SCT250
  FM160100 29008KT P6SM SCT060
  FM160700 29005KT P6SM FEW060 FEW250
  FM161300 27007KT P6SM FEW050 FEW250
  FM161500 30008KT P6SM FEW050 FEW250
  FM162000 24010KT P6SM FEW050 FEW250


KMCO 152044Z 1521/1624 12009KT P6SM VCSH SCT045 SCT100 BKN250
  FM160000 16004KT P6SM FEW040 SCT250
  FM161400 15005KT P6SM SCT025
  FM161900 13008KT P6SM VCSH SCT035 BKN060


KMDW 152102Z 1521/1624 15010KT P6SM VCTS SCT025 BKN045CB
  TEMPO 1521/1601 3SM SHRA BKN025
  FM160100 15007KT P6SM VCSH SCT020 BKN035
  FM160400 14004KT P6SM SCT010 OVC020
  FM160800 VRB03KT 6SM BR OVC008
  FM161600 01005KT P6SM BKN020
  FM161800 05008KT P6SM VCSH BKN035


KMEM 152129Z 1521/1624 23014G22KT P6SM VCTS SCT050CB SCT150 BKN250
  FM160100 19007KT P6SM BKN120 BKN250
  FM160900 20007KT P6SM VCSH BKN060 OVC120
  FM161400 22010KT P6SM VCTS BKN040CB OVC100


KMIA 152052Z 1521/1624 13011KT P6SM SCT030 SCT200
  FM160200 10006KT P6SM FEW040 SCT250
  FM161400 12012KT P6SM SCT035


KMSP 152052Z 1521/1624 03009KT P6SM FEW050
  FM161000 02003KT 6SM BR FEW060 BKN150
  FM161300 01004KT P6SM SCT060 BKN150


KORD 152102Z 1521/1624 15010KT P6SM VCTS SCT025 BKN045CB
  TEMPO 1521/1601 3SM SHRA BKN025
  FM160100 15007KT P6SM VCSH SCT020 BKN035
  FM160400 14004KT P6SM SCT010 OVC020
  FM160800 VRB03KT 5SM BR OVC007
  FM161600 01005KT P6SM BKN015
  FM161800 04007KT P6SM VCSH BKN035


KPDX 152123Z 1521/1618 30006KT 5SM FU BKN040
  FM160400 32003KT 6SM FU SCT040
  FM161400 32003KT P6SM BKN025


KPHL 152041Z 1521/1624 30010KT P6SM FEW050
  FM160000 26005KT P6SM FEW060
  FM161200 25007KT P6SM SCT120


KPHX 152055Z 1521/1624 24008KT P6SM SCT120 BKN160
  FM160800 14010G20KT P6SM VCSH BKN080 BKN120 BKN250
  FM161800 29010KT P6SM BKN080 BKN150


KPIT 152055Z 1521/1624 22006KT P6SM BKN250
  FM161200 18003KT P6SM BKN080
  FM162000 18006KT P6SM -SHRA VCTS BKN040CB


KSAN 152057Z 1521/1624 26009KT P6SM BKN021
  TEMPO 1521/1524 SCT021
  FM160000 28005KT P6SM BKN020
  FM160600 VRB04KT P6SM OVC018
  FM161900 28008KT P6SM SCT020 BKN100


KSEA 152055Z 1521/1624 28006KT 3SM HZ FU SCT040
  FM160300 35005KT 6SM HZ FU SCT050
  FM161000 21006KT P6SM SCT010 SCT050
  FM161200 VRB04KT P6SM BKN010
  TEMPO 1614/1616 6SM BR OVC007
  FM161700 23006KT P6SM SCT200


KSFO 152044Z 1521/1624 28014KT P6SM SCT020
  FM152200 28016G24KT P6SM FEW010
  FM160300 28014KT P6SM BKN014
  FM160700 27010KT P6SM OVC010
  FM161300 27007KT P6SM OVC015
  FM161900 32007KT P6SM SCT015


KSLC 152030Z 1521/1624 18011KT P6SM SCT090 BKN150
  FM152200 33010KT P6SM VCSH BKN090
  FM160300 16009KT P6SM FEW100 SCT200
  FM161900 33008KT P6SM SCT120 SCT200


KSTL 152055Z 1521/1624 23010KT P6SM VCTS BKN035CB
  TEMPO 1522/1524 3SM -TSRA
  FM160100 20004KT P6SM BKN040
  FM160900 23004KT 5SM BR BKN015
  FM161400 26006KT P6SM BKN025
  FM161700 27005KT P6SM BKN040


KTPA 152102Z 1521/1624 VRB06KT P6SM VCTS SCT040CB BKN060
  TEMPO 1521/1523 VRB15G25KT 3SM TSRA BKN030CB
  FM160200 VRB03KT P6SM FEW025 SCT120 BKN250
  FM161400 15006KT P6SM SCT025 SCT250
  FM161900 23007KT P6SM VCTS SCT040CB SCT250